Time;durP1;ratioP1;P1;durP2;ratioP2;P2;SDS_P1;SDS_P2;PMS_P1;PMS_P2;Temp;Humidity;BMP_temperature;BMP_pressure;BME280_temperature;BME280_humidity;BME280_pressure;Samples;Min_cycle;Max_cycle;Signal;HPM_P1;HPM_P2
2021/11/13 09:38:26;;;;;;;6.67;3.70;;;;;;;8.43;81.97;98925.47;5148470;27;20556;-81
2021/11/13 09:40:56;;;;;;;5.87;3.90;;;;;;;8.78;78.92;98920.97;5124007;27;38994;-81
2021/11/13 09:43:25;;;;;;;4.37;3.77;;;;;;;9.10;77.25;98921.81;5128855;27;40912;-82
2021/11/13 09:45:54;;;;;;;4.50;3.57;;;;;;;9.31;75.84;98920.63;5129849;27;41674;-82
2021/11/13 09:48:23;;;;;;;4.60;3.33;;;;;;;9.33;73.26;98913.47;5112797;27;40895;-81
2021/11/13 09:50:51;;;;;;;6.40;4.17;;;;;;;9.35;71.45;98932.72;5129812;27;38871;-82
2021/11/13 09:53:20;;;;;;;4.07;3.07;;;;;;;9.42;72.02;98925.28;5146055;27;42412;-81
2021/11/13 09:55:49;;;;;;;3.67;3.27;;;;;;;9.48;71.81;98917.03;5146195;27;42984;-81
2021/11/13 09:58:17;;;;;;;4.23;3.83;;;;;;;9.55;70.97;98921.03;5145196;27;42821;-80
2021/11/13 10:00:45;;;;;;;4.07;3.63;;;;;;;9.64;69.99;98913.41;5146128;27;40017;-81
2021/11/13 10:03:18;;;;;;;4.60;4.07;;;;;;;9.72;69.86;98924.41;5151885;27;42320;-81
2021/11/13 10:05:47;;;;;;;3.97;3.20;;;;;;;9.60;69.35;98911.91;5129060;27;42849;-81
2021/11/13 10:08:14;;;;;;;3.40;3.10;;;;;;;9.57;69.50;98905.94;5129235;27;41225;-81
2021/11/13 10:10:43;;;;;;;5.03;3.23;;;;;;;9.68;68.79;98920.22;5128845;27;38685;-81
2021/11/13 10:13:27;;;;;;;4.53;3.13;;;;;;;9.72;69.20;98919.13;5128623;27;40200;-81
2021/11/13 10:15:57;;;;;;;6.03;3.80;;;;;;;9.70;68.34;98907.78;5128755;27;41656;-81
2021/11/13 10:18:28;;;;;;;4.67;3.43;;;;;;;9.73;68.84;98901.47;5128986;27;41293;-82
2021/11/13 10:21:03;;;;;;;4.10;3.17;;;;;;;9.72;68.25;98911.19;5125063;27;40031;-81
2021/11/13 10:23:38;;;;;;;6.23;4.20;;;;;;;9.70;68.12;98906.91;5128761;27;40769;-81
2021/11/13 10:26:09;;;;;;;4.73;3.90;;;;;;;9.59;67.21;98915.47;5146346;27;42423;-81
2021/11/13 10:29:00;;;;;;;4.70;4.10;;;;;;;9.54;68.05;98901.66;5127231;27;41163;-82
2021/11/13 10:31:30;;;;;;;3.50;3.20;;;;;;;9.49;68.55;98898.44;5122642;27;39107;-81
2021/11/13 10:33:59;;;;;;;3.83;3.20;;;;;;;9.31;68.27;98889.75;5129669;27;41680;-82
2021/11/13 10:36:29;;;;;;;6.27;4.13;;;;;;;9.30;68.00;98892.50;5143629;27;42120;-80
2021/11/13 10:38:59;;;;;;;4.03;3.03;;;;;;;9.25;68.63;98890.13;5133870;27;41936;-81
2021/11/13 10:41:27;;;;;;;4.03;3.63;;;;;;;9.19;68.56;98894.88;5117704;27;40092;-80
2021/11/13 10:43:56;;;;;;;5.30;3.60;;;;;;;9.07;68.89;98885.00;5115318;27;40907;-81
2021/11/13 10:46:26;;;;;;;4.77;3.60;;;;;;;8.86;69.25;98864.16;5131821;27;43727;-81
2021/11/13 10:48:56;;;;;;;5.23;3.53;;;;;;;8.88;70.10;98875.47;5113621;27;41043;-82
2021/11/13 10:51:25;;;;;;;4.17;3.33;;;;;;;8.80;70.69;98872.38;5114497;27;41016;-82
2021/11/13 10:53:53;;;;;;;3.90;3.57;;;;;;;8.62;71.58;98842.59;5115786;27;40538;-81
2021/11/13 10:56:22;;;;;;;5.47;3.60;;;;;;;8.70;72.34;98855.34;5127773;27;41950;-81
2021/11/13 10:58:58;;;;;;;4.83;3.87;;;;;;;8.66;72.37;98848.53;5116162;27;41050;-81
2021/11/13 11:01:35;;;;;;;4.93;4.17;;;;;;;8.58;72.56;98854.25;5113651;27;40156;-81
2021/11/13 11:04:09;;;;;;;5.70;3.70;;;;;;;8.55;73.25;98851.75;5115935;27;42149;-81
2021/11/13 11:06:38;;;;;;;4.27;3.60;;;;;;;8.68;73.51;98854.56;5114928;27;42797;-81
2021/11/13 11:09:21;;;;;;;4.80;3.47;;;;;;;8.79;73.53;98838.16;5102360;27;40943;-82
2021/11/13 11:11:50;;;;;;;7.27;4.03;;;;;;;8.87;73.12;98847.38;5114649;27;38872;-80
2021/11/13 11:14:22;;;;;;;5.07;3.43;;;;;;;8.71;73.23;98825.38;5114439;27;40703;-81
2021/11/13 11:16:52;;;;;;;5.23;3.80;;;;;;;8.96;73.24;98851.28;5147227;27;43021;-81
2021/11/13 11:19:25;;;;;;;5.30;4.20;;;;;;;8.90;73.20;98831.31;5114351;27;42061;-83
2021/11/13 11:21:57;;;;;;;5.83;4.07;;;;;;;9.05;72.94;98849.91;5114673;27;39887;-80
2021/11/13 11:24:27;;;;;;;5.33;3.63;;;;;;;9.13;73.10;98852.97;5114065;27;40907;-82
2021/11/13 11:27:06;;;;;;;5.27;4.13;;;;;;;9.19;72.87;98852.63;5101614;27;41694;-80
2021/11/13 11:29:38;;;;;;;4.60;3.10;;;;;;;9.16;72.56;98831.63;5114943;27;42572;-81
2021/11/13 11:32:09;;;;;;;5.53;3.27;;;;;;;9.41;72.66;98858.38;5114143;27;39126;-82
2021/11/13 11:34:39;;;;;;;8.03;3.73;;;;;;;9.47;72.38;98842.16;5113994;27;40737;-83
2021/11/13 11:37:11;;;;;;;6.17;4.63;;;;;;;9.73;72.13;98854.72;5128574;27;41604;-83
2021/11/13 11:39:40;;;;;;;6.30;4.27;;;;;;;9.89;71.60;98832.66;5113654;27;41509;-83
2021/11/13 11:42:09;;;;;;;4.37;3.87;;;;;;;10.20;70.44;98845.75;5112885;27;38860;-81
2021/11/13 11:44:40;;;;;;;8.57;4.60;;;;;;;10.37;69.75;98834.97;5115190;27;41816;-82
2021/11/13 11:47:10;;;;;;;9.03;5.00;;;;;;;10.66;69.22;98843.72;5130970;27;42602;-83
2021/11/13 11:49:42;;;;;;;5.27;4.00;;;;;;;10.76;69.29;98830.75;5130340;27;42504;-84
2021/11/13 11:52:11;;;;;;;4.90;3.47;;;;;;;10.79;68.43;98823.47;5113609;27;40012;-84
2021/11/13 11:54:39;;;;;;;5.20;3.90;;;;;;;10.86;67.85;98853.06;5114042;27;42181;-81
2021/11/13 11:57:07;;;;;;;4.47;4.03;;;;;;;10.70;68.58;98832.00;5128768;27;43884;-81
2021/11/13 11:59:36;;;;;;;5.50;4.07;;;;;;;10.78;68.49;98839.44;5112804;27;41467;-81
2021/11/13 12:02:12;;;;;;;5.90;4.17;;;;;;;10.67;68.68;98836.63;5130830;27;38981;-83
2021/11/13 12:04:41;;;;;;;4.73;3.40;;;;;;;10.51;69.74;98831.44;5131680;27;42401;-83
2021/11/13 12:07:13;;;;;;;4.77;3.83;;;;;;;10.34;69.80;98824.56;5112679;27;42610;-82
2021/11/13 12:10:08;;;;;;;4.50;3.63;;;;;;;10.30;70.27;98841.56;5121693;27;43433;-82
2021/11/13 12:12:37;;;;;;;5.00;3.90;;;;;;;10.15;70.82;98823.94;5108711;27;39387;-81
2021/11/13 12:15:29;;;;;;;5.70;4.53;;;;;;;10.13;71.38;98819.72;5130013;27;41847;-80
2021/11/13 12:18:14;;;;;;;5.20;3.43;;;;;;;10.10;71.71;98818.09;5114150;27;45956;-80
2021/11/13 12:20:42;;;;;;;7.00;4.17;;;;;;;9.95;71.95;98805.81;5130898;27;42478;-81
2021/11/13 12:23:17;;;;;;;5.47;4.13;;;;;;;9.82;72.36;98794.28;5113010;27;39486;-81
2021/11/13 12:26:07;;;;;;;5.20;4.37;;;;;;;9.75;72.94;98801.72;5128132;27;42909;-81
2021/11/13 12:28:37;;;;;;;5.60;4.07;;;;;;;9.67;73.42;98801.31;5096749;27;41548;-82
2021/11/13 12:31:15;;;;;;;6.67;4.13;;;;;;;9.71;74.18;98798.41;5112217;27;42375;-81
2021/11/13 12:34:08;;;;;;;6.13;4.17;;;;;;;9.57;74.22;98790.44;5129443;27;39229;-80
2021/11/13 12:36:47;;;;;;;4.00;3.47;;;;;;;9.52;74.33;98792.50;5107968;28;41743;-80
2021/11/13 12:39:17;;;;;;;4.13;3.47;;;;;;;9.63;74.17;98808.59;5112878;27;43147;-82
2021/11/13 12:42:04;;;;;;;6.80;4.50;;;;;;;9.64;74.44;98812.94;5112678;27;41278;-79
2021/11/13 12:44:44;;;;;;;5.17;3.93;;;;;;;9.54;74.87;98801.19;5110735;27;38758;-81
2021/11/13 12:47:19;;;;;;;6.60;4.67;;;;;;;9.54;75.62;98810.91;5112565;27;40761;-81
2021/11/13 12:49:54;;;;;;;5.47;3.93;;;;;;;9.38;75.81;98789.00;5130834;27;42880;-81
2021/11/13 12:52:27;;;;;;;5.43;3.67;;;;;;;9.37;75.95;98788.16;5106196;27;41268;-82
2021/11/13 12:54:59;;;;;;;5.57;4.20;;;;;;;9.35;76.77;98785.59;5129659;27;39949;-80
2021/11/13 12:57:31;;;;;;;5.20;4.20;;;;;;;9.43;76.47;98802.78;5112203;27;40680;-81
2021/11/13 13:00:02;;;;;;;5.27;4.20;;;;;;;9.39;76.86;98796.84;5129925;27;43275;-81
2021/11/13 13:02:32;;;;;;;5.40;3.70;;;;;;;9.34;76.67;98780.38;5111415;27;42195;-79
2021/11/13 13:05:02;;;;;;;5.17;4.67;;;;;;;9.48;76.90;98798.09;5128666;27;40520;-80
2021/11/13 13:07:30;;;;;;;5.83;4.33;;;;;;;9.49;77.22;98798.00;5110345;27;41309;-80
2021/11/13 13:10:00;;;;;;;5.97;4.53;;;;;;;9.47;77.18;98789.28;5129193;27;42422;-81
2021/11/13 13:12:30;;;;;;;6.13;4.80;;;;;;;9.54;77.36;98801.19;5130830;27;42692;-82
2021/11/13 13:15:00;;;;;;;5.63;4.20;;;;;;;9.59;77.31;98801.78;5128802;27;40106;-81
2021/11/13 13:17:30;;;;;;;6.60;4.37;;;;;;;9.55;77.47;98797.63;5129264;27;41747;-80
2021/11/13 13:19:58;;;;;;;6.33;3.93;;;;;;;9.59;77.51;98788.56;5112413;27;44040;-79
2021/11/13 13:22:28;;;;;;;7.03;4.23;;;;;;;9.56;77.62;98787.91;5106482;27;41191;-80
2021/11/13 13:24:58;;;;;;;6.13;4.20;;;;;;;9.62;78.08;98787.53;5128901;27;39733;-80
2021/11/13 13:27:26;;;;;;;4.57;4.00;;;;;;;9.55;77.99;98781.75;5112322;27;40860;-81
2021/11/13 13:29:55;;;;;;;7.47;3.97;;;;;;;9.64;78.15;98781.19;5112293;27;41685;-81
2021/11/13 13:32:24;;;;;;;5.47;4.27;;;;;;;9.56;78.15;98767.59;5112366;27;41419;-81
2021/11/13 13:34:55;;;;;;;6.73;4.10;;;;;;;9.60;78.30;98766.47;5127934;27;41073;-82
2021/11/13 13:37:25;;;;;;;5.60;3.77;;;;;;;9.64;78.34;98765.34;5111358;27;40820;-80
2021/11/13 13:39:57;;;;;;;5.60;4.43;;;;;;;9.68;78.25;98777.44;5111909;27;43183;-80
2021/11/13 13:42:35;;;;;;;5.07;3.90;;;;;;;9.71;78.21;98776.41;5108005;28;42423;-79
2021/11/13 13:45:05;;;;;;;4.60;4.20;;;;;;;9.69;78.39;98773.84;5129341;27;39110;-81
2021/11/13 13:47:33;;;;;;;6.37;3.93;;;;;;;9.69;78.44;98779.13;5111549;27;40623;-82
2021/11/13 13:50:02;;;;;;;6.50;4.50;;;;;;;9.67;78.79;98775.72;5129139;27;43832;-80
2021/11/13 13:52:35;;;;;;;8.30;4.80;;;;;;;9.59;78.60;98767.41;5110981;27;41400;-82
2021/11/13 13:55:05;;;;;;;4.50;3.73;;;;;;;9.53;78.84;98762.47;5111961;27;39974;-82
2021/11/13 13:57:32;;;;;;;4.17;3.40;;;;;;;9.62;78.78;98783.09;5129106;27;42198;-81
2021/11/13 14:00:03;;;;;;;4.83;4.20;;;;;;;9.60;79.07;98774.41;5112159;27;41463;-81
2021/11/13 14:02:41;;;;;;;4.40;4.00;;;;;;;9.53;78.87;98759.84;5125865;27;41914;-80
2021/11/13 14:05:20;;;;;;;4.03;3.50;;;;;;;9.59;78.92;98767.41;5112011;27;39239;-82
2021/11/13 14:07:48;;;;;;;6.97;4.23;;;;;;;9.51;79.14;98752.97;5112016;27;40662;-84
2021/11/13 14:10:18;;;;;;;6.97;4.40;;;;;;;9.50;79.22;98745.97;5131105;27;42976;-82
2021/11/13 14:12:51;;;;;;;6.57;4.57;;;;;;;9.49;79.11;98755.69;5113787;27;41359;-80
2021/11/13 14:15:21;;;;;;;4.70;3.63;;;;;;;9.54;79.25;98766.81;5115026;27;39769;-80
2021/11/13 14:17:56;;;;;;;7.63;4.97;;;;;;;9.53;79.72;98770.41;5115146;27;40648;-82
2021/11/13 14:20:26;;;;;;;5.73;4.13;;;;;;;9.53;79.75;98774.84;5113716;27;41932;-80
2021/11/13 14:22:59;;;;;;;6.60;4.83;;;;;;;9.43;80.01;98763.97;5116305;27;41651;-80
2021/11/13 14:25:30;;;;;;;5.80;3.60;;;;;;;9.48;79.62;98764.56;5121412;27;38931;-82
2021/11/13 14:27:58;;;;;;;6.50;5.00;;;;;;;9.51;79.60;98769.69;5135298;27;42232;-81
2021/11/13 14:30:26;;;;;;;5.30;4.43;;;;;;;9.54;79.53;98774.75;5130531;27;41715;-80
2021/11/13 14:32:57;;;;;;;5.60;3.77;;;;;;;9.50;79.73;98770.63;5115148;27;42023;-80
2021/11/13 14:35:25;;;;;;;5.10;3.80;;;;;;;9.49;80.02;98776.00;5114999;27;40368;-83
2021/11/13 14:37:54;;;;;;;7.57;5.50;;;;;;;9.41;79.88;98763.22;5114866;27;40725;-83
2021/11/13 14:40:22;;;;;;;8.17;5.97;;;;;;;9.52;79.69;98774.00;5114581;27;41951;-81
2021/11/13 14:42:52;;;;;;;8.50;5.70;;;;;;;9.54;79.79;98784.47;5132218;27;43746;-82
2021/11/13 14:45:29;;;;;;;4.93;4.33;;;;;;;9.51;80.00;98780.25;5130533;27;40868;-83
2021/11/13 14:47:57;;;;;;;6.87;4.97;;;;;;;9.40;79.83;98769.44;5116017;27;40739;-84
2021/11/13 14:50:25;;;;;;;6.37;4.37;;;;;;;9.39;80.23;98775.69;5130718;27;42202;-82
2021/11/13 14:52:54;;;;;;;6.10;4.20;;;;;;;9.34;80.44;98775.94;5112383;27;41175;-83
2021/11/13 14:55:25;;;;;;;7.13;4.70;;;;;;;9.41;80.43;98781.72;5114277;27;38830;-82
2021/11/13 14:57:56;;;;;;;7.33;4.87;;;;;;;9.42;80.72;98790.50;5131541;27;41037;-81
2021/11/13 15:00:30;;;;;;;6.60;4.23;;;;;;;9.43;80.83;98782.47;5114215;27;42981;-81
2021/11/13 15:03:12;;;;;;;5.33;4.20;;;;;;;9.33;81.06;98770.75;5130648;27;42186;-83
2021/11/13 15:05:45;;;;;;;7.10;4.33;;;;;;;9.44;80.70;98778.03;5116970;27;39281;-83
2021/11/13 15:08:23;;;;;;;6.70;4.03;;;;;;;9.45;80.99;98780.59;5124070;27;40628;-81
2021/11/13 15:10:55;;;;;;;6.00;4.17;;;;;;;9.42;80.72;98780.78;5128483;27;43051;-82
2021/11/13 15:13:26;;;;;;;6.17;5.23;;;;;;;9.35;81.15;98774.16;5114735;27;41416;-84
2021/11/13 15:15:55;;;;;;;6.33;3.93;;;;;;;9.40;81.13;98782.66;5115790;27;38729;-82
2021/11/13 15:18:33;;;;;;;5.43;3.67;;;;;;;9.36;81.20;98775.88;5108626;27;41820;-82
2021/11/13 15:21:04;;;;;;;5.07;3.40;;;;;;;9.36;80.88;98781.16;5112359;27;43001;-83
2021/11/13 15:23:32;;;;;;;5.40;4.07;;;;;;;9.42;80.97;98783.41;5112394;27;42781;-83
2021/11/13 15:26:00;;;;;;;5.77;3.70;;;;;;;9.49;80.91;98798.00;5108328;27;38674;-84
2021/11/13 15:28:30;;;;;;;6.23;4.30;;;;;;;9.50;80.74;98797.06;5112550;27;41055;-83
2021/11/13 15:31:02;;;;;;;4.73;3.40;;;;;;;9.49;81.07;98798.00;5112226;27;41839;-82
